createdAt,value
2023-03-21T00:00:39.907Z,1.00
2023-03-21T00:03:07.968Z,1.00
2023-03-21T00:05:36.891Z,1.00
2023-03-21T00:08:05.426Z,1.00
2023-03-21T00:10:41.108Z,1.00
2023-03-21T00:13:21.570Z,1.00
2023-03-21T00:16:17.083Z,1.00
2023-03-21T00:18:46.382Z,1.00
2023-03-21T00:24:05.063Z,1.00
2023-03-21T00:26:33.518Z,1.00
2023-03-21T00:29:01.585Z,1.00
2023-03-21T00:31:31.388Z,1.00
2023-03-21T00:34:01.392Z,1.00
2023-03-21T00:36:29.847Z,1.00
2023-03-21T00:39:00.815Z,1.00
2023-03-21T00:41:41.888Z,1.00
2023-03-21T00:44:13.703Z,1.00
2023-03-21T00:46:51.641Z,1.00
2023-03-21T00:49:22.633Z,1.00
2023-03-21T00:51:51.667Z,1.00
2023-03-21T00:54:19.953Z,1.00
2023-03-21T00:56:48.044Z,1.00
2023-03-21T00:59:16.653Z,1.00
2023-03-21T01:01:46.990Z,1.00
2023-03-21T01:04:16.687Z,1.00
2023-03-21T01:06:45.653Z,1.00
2023-03-21T01:09:16.664Z,1.00
2023-03-21T01:11:45.446Z,1.00
2023-03-21T01:14:22.527Z,1.00
2023-03-21T01:16:53.235Z,1.00
2023-03-21T01:19:40.720Z,1.00
2023-03-21T01:22:14.733Z,1.00
2023-03-21T01:24:52.561Z,1.00
2023-03-21T01:27:22.505Z,1.00
2023-03-21T01:29:50.919Z,1.00
2023-03-21T01:32:20.336Z,1.00
2023-03-21T01:34:48.406Z,1.00
2023-03-21T01:37:17.850Z,1.00
2023-03-21T01:39:51.685Z,1.00
2023-03-21T01:42:20.345Z,1.00
2023-03-21T01:44:57.701Z,1.00
2023-03-21T01:47:31.349Z,1.00
2023-03-21T01:50:23.146Z,1.00
2023-03-21T01:53:12.342Z,1.00
2023-03-21T01:55:40.960Z,1.00
2023-03-21T01:58:22.322Z,1.00
2023-03-21T02:01:07.482Z,1.00
2023-03-21T02:03:51.643Z,1.00
2023-03-21T02:06:49.987Z,1.00
2023-03-21T02:09:33.586Z,1.00
2023-03-21T02:12:02.715Z,1.00
2023-03-21T02:14:35.795Z,1.00
2023-03-21T02:17:36.655Z,1.00
2023-03-21T02:20:57.225Z,1.00
2023-03-21T02:24:20.390Z,1.00
2023-03-21T02:27:14.950Z,1.00
2023-03-21T02:30:49.078Z,1.00
2023-03-21T02:33:36.635Z,1.00
2023-03-21T02:36:33.017Z,1.00
2023-03-21T02:39:09.557Z,1.00
2023-03-21T02:41:48.137Z,1.00
2023-03-21T02:44:22.156Z,1.00
2023-03-21T02:47:04.658Z,1.00
2023-03-21T02:49:40.198Z,1.00
2023-03-21T02:52:17.069Z,1.00
2023-03-21T02:54:53.374Z,1.00
2023-03-21T02:57:33.733Z,1.00
2023-03-21T03:00:16.688Z,1.00
2023-03-21T03:02:50.592Z,1.00
2023-03-21T03:05:23.030Z,1.00
2023-03-21T03:08:12.101Z,1.00
2023-03-21T03:11:01.622Z,1.00
2023-03-21T03:13:43.189Z,1.00
2023-03-21T03:16:25.905Z,1.00
2023-03-21T03:18:56.225Z,1.00
2023-03-21T03:21:31.774Z,1.00
2023-03-21T03:24:02.659Z,1.00
2023-03-21T03:26:37.177Z,1.00
2023-03-21T03:29:08.285Z,1.00
2023-03-21T03:31:43.371Z,1.00
2023-03-21T03:34:16.568Z,1.00
2023-03-21T03:36:51.602Z,1.00
2023-03-21T03:39:20.865Z,1.00
2023-03-21T03:42:15.444Z,1.00
2023-03-21T03:44:54.715Z,1.00
2023-03-21T03:47:33.794Z,1.00
2023-03-21T03:50:10.449Z,1.00
2023-03-21T03:52:55.398Z,1.00
2023-03-21T03:55:28.204Z,1.00
2023-03-21T03:58:04.646Z,1.00
2023-03-21T04:00:35.766Z,1.00
2023-03-21T04:03:07.379Z,1.00
2023-03-21T04:05:35.519Z,1.00
2023-03-21T04:08:04.100Z,1.00
2023-03-21T04:10:39.308Z,1.00
2023-03-21T04:13:09.092Z,1.00
2023-03-21T04:16:03.710Z,1.00
2023-03-21T04:18:32.261Z,1.00
2023-03-21T04:21:00.387Z,1.00
2023-03-21T04:23:31.082Z,1.00
2023-03-21T04:25:59.274Z,1.00
2023-03-21T04:28:37.248Z,1.00
2023-03-21T04:31:25.005Z,1.00
2023-03-21T04:34:01.904Z,1.00
2023-03-21T04:36:38.756Z,1.00
2023-03-21T04:39:12.420Z,1.00
2023-03-21T04:41:41.692Z,1.00
2023-03-21T04:44:11.951Z,1.00
2023-03-21T04:46:41.021Z,1.00
2023-03-21T04:49:10.564Z,1.00
2023-03-21T04:51:39.168Z,1.00
2023-03-21T04:56:42.962Z,1.00
2023-03-21T04:59:14.525Z,1.00
2023-03-21T05:01:43.810Z,1.00
2023-03-21T05:04:13.987Z,1.00
2023-03-21T05:06:43.758Z,1.00
2023-03-21T05:09:12.082Z,1.00
2023-03-21T05:11:41.290Z,1.00
2023-03-21T05:14:15.250Z,1.00
2023-03-21T05:16:45.168Z,1.00
2023-03-21T05:19:13.867Z,1.00
2023-03-21T05:21:43.588Z,1.00
2023-03-21T05:24:18.524Z,1.00
2023-03-21T05:26:50.672Z,1.00
2023-03-21T05:29:21.700Z,1.00
2023-03-21T05:32:09.296Z,1.00
2023-03-21T05:34:37.334Z,1.00
2023-03-21T05:37:05.634Z,1.00
2023-03-21T05:39:44.353Z,1.00
2023-03-21T05:42:19.600Z,1.00
2023-03-21T05:44:49.519Z,1.00
2023-03-21T05:47:19.531Z,1.00
2023-03-21T05:49:49.804Z,99.90
2023-03-21T05:52:18.253Z,1.00
2023-03-21T05:54:48.329Z,1.00
2023-03-21T05:57:19.148Z,1.00
2023-03-21T06:00:08.386Z,1.00
2023-03-21T06:02:46.264Z,1.00
2023-03-21T06:05:38.041Z,1.00
2023-03-21T06:08:10.623Z,1.00
2023-03-21T06:10:38.716Z,1.00
2023-03-21T06:13:06.864Z,99.90
2023-03-21T06:15:37.243Z,99.90
2023-03-21T06:18:11.543Z,1.00
2023-03-21T06:20:42.360Z,1.00
2023-03-21T06:23:13.193Z,1.00
2023-03-21T06:25:41.290Z,1.00
2023-03-21T06:28:09.367Z,1.00
2023-03-21T06:30:42.663Z,1.00
2023-03-21T06:33:21.426Z,1.00
2023-03-21T06:35:52.897Z,1.00
2023-03-21T06:38:21.685Z,1.00
2023-03-21T06:40:50.157Z,1.00
2023-03-21T06:43:21.307Z,1.00
2023-03-21T06:45:50.855Z,99.90
2023-03-21T06:48:19.091Z,99.90
2023-03-21T06:50:52.078Z,1.00
2023-03-21T06:53:24.363Z,99.90
2023-03-21T06:56:13.739Z,1.00
2023-03-21T06:58:42.826Z,1.00
2023-03-21T07:01:21.477Z,99.90
2023-03-21T07:03:59.457Z,1.00
2023-03-21T07:06:29.358Z,99.90
2023-03-21T07:08:58.043Z,99.90
2023-03-21T07:11:27.064Z,99.90
2023-03-21T07:13:55.381Z,99.90
2023-03-21T07:16:26.113Z,99.90
2023-03-21T07:18:54.530Z,99.90
2023-03-21T07:21:22.644Z,99.90
2023-03-21T07:23:51.215Z,99.90
2023-03-21T07:26:19.421Z,99.90
2023-03-21T07:28:47.566Z,99.90
2023-03-21T07:31:17.402Z,99.90
2023-03-21T07:33:47.318Z,99.90
2023-03-21T07:36:16.892Z,99.90
2023-03-21T07:38:46.694Z,99.90
2023-03-21T07:43:44.605Z,99.90
2023-03-21T07:46:12.794Z,99.90
2023-03-21T07:48:40.885Z,99.90
2023-03-21T07:51:10.348Z,99.90
2023-03-21T07:53:38.481Z,99.90
2023-03-21T07:56:07.378Z,99.90
2023-03-21T07:58:35.646Z,99.90
2023-03-21T08:01:03.783Z,99.90
2023-03-21T08:03:33.337Z,99.90
2023-03-21T08:06:01.922Z,99.90
2023-03-21T08:08:31.538Z,99.90
2023-03-21T08:10:59.863Z,99.90
2023-03-21T08:13:28.020Z,99.90
2023-03-21T08:15:56.119Z,99.90
2023-03-21T08:18:24.224Z,99.90
2023-03-21T08:20:54.007Z,99.90
2023-03-21T08:23:22.430Z,99.90
2023-03-21T08:25:54.047Z,99.90
2023-03-21T08:28:23.118Z,99.90
2023-03-21T08:30:51.507Z,99.90
2023-03-21T08:33:19.748Z,99.90
2023-03-21T08:35:48.357Z,99.90
2023-03-21T08:38:16.946Z,99.90
2023-03-21T08:40:45.024Z,99.90
2023-03-21T08:43:14.990Z,99.90
2023-03-21T08:45:43.298Z,99.90
2023-03-21T08:48:11.428Z,99.90
2023-03-21T08:50:39.686Z,99.90
2023-03-21T08:53:07.858Z,99.90
2023-03-21T08:55:36.010Z,99.90
2023-03-21T08:58:04.281Z,99.90
2023-03-21T09:00:33.789Z,99.90
2023-03-21T09:03:01.832Z,99.90
2023-03-21T09:05:30.004Z,99.90
2023-03-21T09:07:58.053Z,99.90
2023-03-21T09:10:26.245Z,99.90
2023-03-21T09:12:55.763Z,99.90
2023-03-21T09:15:25.369Z,99.90
2023-03-21T09:17:56.931Z,99.90
2023-03-21T09:20:30.717Z,99.90
2023-03-21T09:23:01.608Z,99.90
2023-03-21T09:25:31.042Z,99.90
2023-03-21T09:28:00.200Z,99.90
2023-03-21T09:30:28.647Z,99.90
2023-03-21T09:32:59.565Z,99.90
2023-03-21T09:35:28.293Z,99.90
2023-03-21T09:37:57.437Z,99.90
2023-03-21T09:40:41.426Z,99.90
2023-03-21T09:43:21.892Z,99.90
2023-03-21T09:45:56.068Z,99.90
2023-03-21T09:48:37.641Z,99.90
2023-03-21T09:51:15.878Z,99.90
2023-03-21T09:53:45.836Z,99.90
2023-03-21T09:56:14.047Z,99.90
2023-03-21T09:58:46.242Z,99.90
2023-03-21T10:01:22.302Z,97.10
2023-03-21T10:03:53.708Z,99.90
2023-03-21T10:06:30.366Z,95.50
2023-03-21T10:09:01.442Z,96.40
2023-03-21T10:11:32.865Z,87.70
2023-03-21T10:14:05.409Z,87.00
2023-03-21T10:16:35.810Z,86.30
2023-03-21T10:19:12.184Z,95.00
2023-03-21T10:21:59.619Z,83.00
2023-03-21T10:24:30.540Z,89.90
2023-03-21T10:26:58.851Z,65.90
2023-03-21T10:29:31.548Z,59.80
2023-03-21T10:32:00.493Z,70.30
2023-03-21T10:34:34.432Z,65.60
2023-03-21T10:37:04.567Z,61.70
2023-03-21T10:39:36.655Z,59.40
2023-03-21T10:42:05.114Z,55.10
2023-03-21T10:44:34.796Z,60.40
2023-03-21T10:47:07.681Z,47.70
2023-03-21T10:50:05.705Z,49.60
2023-03-21T10:52:29.851Z,36.00
2023-03-21T10:55:09.186Z,26.10
2023-03-21T10:57:38.399Z,27.90
2023-03-21T11:00:14.955Z,44.60
2023-03-21T11:02:43.419Z,17.60
2023-03-21T11:05:22.437Z,4.50
2023-03-21T11:07:59.138Z,1.00
2023-03-21T11:10:32.642Z,1.00
2023-03-21T11:13:06.772Z,1.00
2023-03-21T11:15:42.455Z,1.00
2023-03-21T11:18:21.368Z,1.00
2023-03-21T11:20:56.320Z,1.00
2023-03-21T11:23:29.398Z,1.00
2023-03-21T11:26:00.481Z,1.00
2023-03-21T11:28:35.068Z,1.00
2023-03-21T11:31:04.927Z,1.00
2023-03-21T11:33:36.589Z,1.00
2023-03-21T11:36:28.526Z,1.00
2023-03-21T11:38:59.780Z,1.00
2023-03-21T11:41:31.341Z,1.00
2023-03-21T11:44:01.218Z,1.00
2023-03-21T11:46:31.367Z,1.00
2023-03-21T11:49:01.402Z,1.00
2023-03-21T11:51:37.615Z,1.00
2023-03-21T11:54:12.977Z,1.00
2023-03-21T11:56:45.279Z,1.00
2023-03-21T11:59:37.205Z,1.00
2023-03-21T12:02:27.638Z,1.00
2023-03-21T12:05:01.324Z,1.00
2023-03-21T12:07:46.263Z,1.00
2023-03-21T12:10:31.649Z,1.00
2023-03-21T12:13:11.095Z,1.00
2023-03-21T12:15:44.777Z,1.00
2023-03-21T12:18:36.016Z,1.00
2023-03-21T12:21:08.185Z,1.00
2023-03-21T12:24:02.430Z,1.00
2023-03-21T12:26:32.200Z,1.00
2023-03-21T12:29:27.334Z,1.00
2023-03-21T12:32:06.469Z,1.00
2023-03-21T12:35:03.560Z,1.00
2023-03-21T12:37:38.302Z,1.00
2023-03-21T12:40:18.579Z,1.00
2023-03-21T12:43:22.843Z,1.00
2023-03-21T12:45:54.990Z,1.00
2023-03-21T12:48:29.097Z,1.00
2023-03-21T12:51:02.085Z,1.00
2023-03-21T12:53:42.957Z,1.00
2023-03-21T12:56:19.943Z,1.00
2023-03-21T12:58:52.062Z,1.00
2023-03-21T13:01:23.324Z,1.00
2023-03-21T13:03:58.629Z,1.00
2023-03-21T13:06:28.399Z,1.00
2023-03-21T13:09:03.726Z,1.00
2023-03-21T13:11:34.595Z,1.00
2023-03-21T13:14:07.129Z,1.00
2023-03-21T13:16:39.487Z,1.00
2023-03-21T13:19:17.232Z,1.00
2023-03-21T13:21:52.305Z,1.00
2023-03-21T13:24:29.112Z,1.00
2023-03-21T13:27:04.272Z,1.00
2023-03-21T13:29:34.869Z,1.00
2023-03-21T13:32:11.116Z,1.00
2023-03-21T13:34:42.915Z,1.00
2023-03-21T13:37:18.068Z,1.00
2023-03-21T13:39:47.806Z,1.00
2023-03-21T13:42:24.613Z,1.00
2023-03-21T13:44:57.566Z,1.00
2023-03-21T13:47:42.610Z,1.00
2023-03-21T13:50:29.640Z,1.00
2023-03-21T13:53:22.545Z,1.00
2023-03-21T13:56:23.963Z,1.00
2023-03-21T13:59:04.588Z,1.00
2023-03-21T14:01:36.230Z,1.00
2023-03-21T14:04:14.484Z,1.00
2023-03-21T14:06:51.776Z,1.00
2023-03-21T14:09:26.924Z,1.00
2023-03-21T14:12:03.993Z,1.00
2023-03-21T14:14:40.406Z,1.00
2023-03-21T14:17:15.436Z,1.00
2023-03-21T14:19:45.672Z,1.00
2023-03-21T14:22:14.897Z,1.00
2023-03-21T14:24:49.169Z,1.00
2023-03-21T14:27:17.304Z,1.00
2023-03-21T14:29:48.818Z,1.00
2023-03-21T14:32:23.066Z,1.00
2023-03-21T14:34:51.312Z,1.00
2023-03-21T14:37:32.244Z,1.00
2023-03-21T14:40:03.248Z,1.00
2023-03-21T14:42:35.909Z,1.00
2023-03-21T14:45:20.597Z,1.00
2023-03-21T14:48:00.519Z,1.00
2023-03-21T14:50:35.810Z,1.00
2023-03-21T14:53:04.104Z,1.00
2023-03-21T14:55:32.163Z,1.00
2023-03-21T14:58:00.419Z,1.00
2023-03-21T15:00:32.213Z,1.00
2023-03-21T15:03:09.410Z,1.00
2023-03-21T15:05:39.225Z,1.00
2023-03-21T15:08:10.664Z,1.00
2023-03-21T15:10:39.621Z,1.00
2023-03-21T15:13:16.780Z,1.00
2023-03-21T15:15:46.545Z,1.00
2023-03-21T15:18:19.198Z,1.00
2023-03-21T15:20:50.144Z,1.00
2023-03-21T15:23:28.041Z,1.00
2023-03-21T15:25:56.603Z,1.00
2023-03-21T15:30:56.604Z,1.00
2023-03-21T15:33:26.068Z,1.00
2023-03-21T15:35:56.080Z,1.00
2023-03-21T15:38:30.575Z,1.00
2023-03-21T15:41:27.512Z,1.00
2023-03-21T15:44:01.702Z,1.00
2023-03-21T15:46:48.304Z,1.00
2023-03-21T15:49:22.797Z,1.00
2023-03-21T15:51:54.794Z,1.00
2023-03-21T15:54:25.806Z,1.00
2023-03-21T15:56:55.937Z,1.00
2023-03-21T15:59:27.854Z,1.00
2023-03-21T16:01:57.955Z,1.00
2023-03-21T16:04:26.760Z,1.00
2023-03-21T16:06:59.369Z,1.00
2023-03-21T16:09:28.251Z,1.00
2023-03-21T16:11:58.699Z,1.00
2023-03-21T16:14:29.212Z,1.00
2023-03-21T16:16:59.184Z,1.00
2023-03-21T16:19:29.646Z,1.00
2023-03-21T16:21:57.705Z,1.00
2023-03-21T16:24:25.692Z,1.00
2023-03-21T16:26:55.094Z,1.00
2023-03-21T16:29:23.154Z,1.00
2023-03-21T16:31:51.747Z,1.00
2023-03-21T16:34:21.150Z,1.00
2023-03-21T16:36:49.222Z,1.00
2023-03-21T16:39:19.684Z,1.00
2023-03-21T16:41:48.291Z,1.00
2023-03-21T16:44:16.619Z,1.00
2023-03-21T16:46:44.720Z,1.00
2023-03-21T16:49:21.745Z,1.00
2023-03-21T16:51:49.717Z,1.00
2023-03-21T16:54:17.826Z,1.00
2023-03-21T16:56:48.354Z,1.00
2023-03-21T16:59:16.791Z,1.00
2023-03-21T17:01:47.970Z,1.00
2023-03-21T17:04:17.822Z,1.00
2023-03-21T17:06:49.298Z,1.00
2023-03-21T17:09:19.872Z,1.00
2023-03-21T17:11:48.143Z,1.00
2023-03-21T17:14:17.911Z,1.00
2023-03-21T17:16:46.394Z,1.00
2023-03-21T17:19:16.738Z,1.00
2023-03-21T17:21:45.047Z,1.00
2023-03-21T17:24:15.037Z,1.00
2023-03-21T17:26:43.328Z,1.00
2023-03-21T17:29:13.667Z,1.00
2023-03-21T17:31:42.475Z,1.00
2023-03-21T17:34:11.100Z,1.00
2023-03-21T17:36:41.444Z,1.00
2023-03-21T17:39:13.906Z,1.00
2023-03-21T17:41:43.214Z,1.00
2023-03-21T17:44:11.306Z,1.00
2023-03-21T17:46:39.582Z,1.00
2023-03-21T17:49:08.073Z,1.00
2023-03-21T17:51:36.216Z,1.00
2023-03-21T17:54:06.013Z,1.00
2023-03-21T17:56:37.420Z,1.00
2023-03-21T17:59:08.573Z,1.00
2023-03-21T18:01:36.667Z,1.00
2023-03-21T18:04:05.268Z,1.00
2023-03-21T18:06:34.961Z,1.00
2023-03-21T18:09:07.743Z,1.00
2023-03-21T18:11:35.796Z,1.00
2023-03-21T18:14:15.770Z,1.00
2023-03-21T18:16:46.576Z,1.00
2023-03-21T18:19:14.941Z,1.00
2023-03-21T18:21:44.754Z,1.00
2023-03-21T18:24:13.649Z,1.00
2023-03-21T18:26:41.999Z,1.00
2023-03-21T18:30:07.926Z,1.00
2023-03-21T18:32:06.721Z,1.00
2023-03-21T18:34:37.291Z,1.00
2023-03-21T18:37:07.635Z,1.00
2023-03-21T18:39:35.986Z,46.30
2023-03-21T18:42:05.909Z,1.00
2023-03-21T18:44:38.581Z,1.00
2023-03-21T18:47:08.914Z,1.00
2023-03-21T18:52:26.449Z,1.00
2023-03-21T18:54:55.477Z,1.00
2023-03-21T18:57:39.387Z,1.00
2023-03-21T19:00:13.329Z,1.00
2023-03-21T19:02:47.027Z,1.00
2023-03-21T19:05:16.926Z,1.00
2023-03-21T19:07:45.561Z,1.00
2023-03-21T19:10:18.959Z,1.00
2023-03-21T19:12:48.358Z,1.00
2023-03-21T19:15:18.663Z,1.00
2023-03-21T19:20:37.986Z,1.00
2023-03-21T19:23:08.179Z,1.00
2023-03-21T19:25:37.343Z,1.00
2023-03-21T19:28:05.862Z,1.00
2023-03-21T19:30:34.791Z,1.00
2023-03-21T19:33:04.235Z,1.00
2023-03-21T19:35:33.076Z,1.00
2023-03-21T19:38:01.085Z,1.00
2023-03-21T19:40:29.296Z,1.00
2023-03-21T19:42:57.574Z,1.00
2023-03-21T19:45:26.442Z,1.00
2023-03-21T19:47:54.661Z,1.00
2023-03-21T19:50:49.393Z,3.30
2023-03-21T19:53:17.440Z,8.50
2023-03-21T19:55:45.795Z,98.20
2023-03-21T19:58:16.118Z,99.90
2023-03-21T20:00:44.228Z,99.90
2023-03-21T20:03:12.352Z,99.90
2023-03-21T20:05:42.025Z,99.90
2023-03-21T20:08:11.068Z,99.90
2023-03-21T20:10:39.825Z,99.90
2023-03-21T20:13:08.011Z,99.90
2023-03-21T20:15:45.994Z,99.90
2023-03-21T20:18:15.879Z,99.90
2023-03-21T20:20:45.258Z,99.90
2023-03-21T20:23:15.840Z,99.90
2023-03-21T20:25:45.524Z,99.90
2023-03-21T20:28:23.923Z,99.90
2023-03-21T20:30:56.822Z,99.90
2023-03-21T20:33:25.520Z,99.90
2023-03-21T20:38:47.687Z,99.90
2023-03-21T20:41:15.831Z,99.90
2023-03-21T20:44:34.721Z,99.90
2023-03-21T20:46:32.052Z,99.90
2023-03-21T20:49:00.156Z,99.90
2023-03-21T20:52:44.570Z,99.90
2023-03-21T20:54:18.908Z,99.90
2023-03-21T20:56:47.770Z,99.90
2023-03-21T20:59:25.655Z,99.90
2023-03-21T21:01:54.706Z,99.90
2023-03-21T21:04:25.583Z,99.90
2023-03-21T21:07:04.237Z,99.90
2023-03-21T21:09:32.454Z,99.90
2023-03-21T21:12:09.317Z,99.90
2023-03-21T21:14:38.102Z,99.90
2023-03-21T21:17:24.622Z,99.90
2023-03-21T21:19:55.355Z,99.90
2023-03-21T21:22:24.766Z,99.90
2023-03-21T21:24:52.760Z,99.90
2023-03-21T21:27:20.878Z,99.90
2023-03-21T21:29:49.927Z,99.90
2023-03-21T21:32:19.665Z,99.90
2023-03-21T21:34:48.506Z,99.90
2023-03-21T21:37:16.559Z,99.90
2023-03-21T21:39:46.668Z,99.90
2023-03-21T21:42:14.637Z,99.90
2023-03-21T21:44:44.936Z,99.90
2023-03-21T21:47:13.138Z,99.90
2023-03-21T21:49:42.269Z,99.90
2023-03-21T21:52:13.287Z,99.90
2023-03-21T21:54:45.591Z,99.90
2023-03-21T21:57:18.966Z,99.90
2023-03-21T21:59:47.040Z,99.90
2023-03-21T22:02:16.788Z,99.90
2023-03-21T22:04:45.125Z,99.90
2023-03-21T22:07:14.598Z,99.90
2023-03-21T22:09:42.875Z,99.90
2023-03-21T22:12:11.306Z,99.90
2023-03-21T22:14:40.903Z,99.90
2023-03-21T22:17:09.052Z,99.90
2023-03-21T22:19:39.150Z,99.90
2023-03-21T22:22:08.195Z,99.90
2023-03-21T22:24:37.466Z,99.90
2023-03-21T22:27:05.972Z,99.90
2023-03-21T22:29:34.106Z,99.90
2023-03-21T22:32:03.599Z,99.90
2023-03-21T22:34:31.700Z,99.90
2023-03-21T22:36:59.852Z,99.90
2023-03-21T22:39:28.663Z,99.90
2023-03-21T22:42:00.698Z,99.90
2023-03-21T22:44:34.301Z,99.90
2023-03-21T22:47:04.192Z,99.90
2023-03-21T22:49:32.833Z,99.90
2023-03-21T22:52:03.105Z,99.90
2023-03-21T22:54:31.431Z,99.90
2023-03-21T22:56:59.884Z,99.90
2023-03-21T22:59:28.576Z,99.90
2023-03-21T23:01:57.083Z,99.90
2023-03-21T23:04:27.711Z,99.90
2023-03-21T23:06:55.965Z,99.90
2023-03-21T23:09:24.044Z,99.90
2023-03-21T23:11:52.094Z,99.90
2023-03-21T23:14:21.329Z,99.90
2023-03-21T23:16:50.610Z,99.90
2023-03-21T23:19:19.966Z,99.90
2023-03-21T23:21:50.084Z,99.90
2023-03-21T23:24:18.165Z,99.90
2023-03-21T23:26:46.278Z,99.90
2023-03-21T23:29:14.320Z,99.90
2023-03-21T23:31:42.509Z,99.90
2023-03-21T23:34:10.641Z,99.90
2023-03-21T23:36:39.705Z,99.90
2023-03-21T23:39:09.252Z,99.90
2023-03-21T23:41:37.535Z,99.90
2023-03-21T23:44:06.006Z,99.90
2023-03-21T23:46:34.178Z,99.90
2023-03-21T23:49:02.229Z,99.90
2023-03-21T23:51:30.414Z,99.90
2023-03-21T23:53:58.487Z,99.90
2023-03-21T23:56:28.591Z,99.90
2023-03-21T23:58:58.906Z,99.90
